Time;durP1;ratioP1;P1;durP2;ratioP2;P2;SDS_P1;SDS_P2;PMS_P1;PMS_P2;Temp;Humidity;BMP_temperature;BMP_pressure;BME280_temperature;BME280_humidity;BME280_pressure;Samples;Min_cycle;Max_cycle;Signal;HPM_P1;HPM_P2
2021/01/06 00:01:23;;;;;;;8.90;4.53;;;;;;;;;;5051807;28;20033;-65
2021/01/06 00:03:49;;;;;;;10.13;5.13;;;;;;;;;;5065956;28;20027;-65
2021/01/06 00:06:15;;;;;;;10.57;5.27;;;;;;;;;;5066504;28;20028;-65
2021/01/06 00:08:41;;;;;;;10.37;5.40;;;;;;;;;;5080788;28;20020;-65
2021/01/06 00:11:06;;;;;;;11.17;5.13;;;;;;;;;;5072659;28;20379;-65
2021/01/06 00:13:32;;;;;;;11.53;5.73;;;;;;;;;;5070671;28;20046;-65
2021/01/06 00:15:57;;;;;;;10.97;5.53;;;;;;;;;;5060309;28;20048;-65
2021/01/06 00:18:24;;;;;;;10.37;5.27;;;;;;;;;;5077506;28;20482;-65
2021/01/06 00:20:49;;;;;;;9.00;4.87;;;;;;;;;;5057424;28;20020;-65
2021/01/06 00:23:15;;;;;;;11.10;4.97;;;;;;;;;;5071829;28;20050;-65
2021/01/06 00:25:41;;;;;;;8.07;4.43;;;;;;;;;;5095146;28;20032;-65
2021/01/06 00:28:07;;;;;;;11.40;5.30;;;;;;;;;;5068990;28;20078;-65
2021/01/06 00:30:33;;;;;;;10.87;5.50;;;;;;;;;;5062493;28;20451;-65
2021/01/06 00:32:59;;;;;;;11.33;5.77;;;;;;;;;;5070813;28;20028;-65
2021/01/06 00:35:25;;;;;;;12.27;5.53;;;;;;;;;;5065850;28;20016;-65
2021/01/06 00:37:51;;;;;;;13.27;5.20;;;;;;;;;;5071917;28;20059;-65
2021/01/06 00:40:17;;;;;;;9.63;5.43;;;;;;;;;;5052000;28;20020;-65
2021/01/06 00:42:42;;;;;;;12.80;5.23;;;;;;;;;;5067938;28;20458;-65
2021/01/06 00:45:09;;;;;;;13.53;5.70;;;;;;;;;;5071474;28;20025;-65
2021/01/06 00:47:35;;;;;;;13.10;5.63;;;;;;;;;;5055693;28;20063;-65
2021/01/06 00:50:00;;;;;;;13.93;6.00;;;;;;;;;;5047929;28;20032;-65
2021/01/06 00:52:25;;;;;;;14.67;5.23;;;;;;;;;;5053565;28;20052;-65
2021/01/06 00:54:50;;;;;;;11.27;5.50;;;;;;;;;;5060971;28;20416;-65
2021/01/06 00:57:16;;;;;;;12.73;5.87;;;;;;;;;;5052315;28;20498;-65
2021/01/06 00:59:41;;;;;;;15.00;6.43;;;;;;;;;;5053845;28;20424;-65
2021/01/06 01:02:07;;;;;;;12.37;5.70;;;;;;;;;;5069990;28;20024;-65
2021/01/06 01:04:32;;;;;;;12.37;6.00;;;;;;;;;;5068820;28;20017;-65
2021/01/06 01:06:57;;;;;;;12.63;4.63;;;;;;;;;;5072319;28;20433;-65
2021/01/06 01:09:22;;;;;;;10.60;4.87;;;;;;;;;;5071194;28;20039;-65
2021/01/06 01:11:47;;;;;;;14.40;6.43;;;;;;;;;;5068670;28;20029;-65
2021/01/06 01:14:13;;;;;;;15.10;5.97;;;;;;;;;;5071179;28;20382;-65
2021/01/06 01:16:42;;;;;;;11.80;5.73;;;;;;;;;;5071970;28;20035;-65
2021/01/06 01:19:07;;;;;;;13.63;6.23;;;;;;;;;;5062808;28;20118;-65
2021/01/06 01:21:33;;;;;;;10.60;5.60;;;;;;;;;;5072044;28;20116;-65
2021/01/06 01:23:58;;;;;;;12.47;6.23;;;;;;;;;;5069934;28;20048;-65
2021/01/06 01:26:23;;;;;;;13.20;5.93;;;;;;;;;;5067153;28;20028;-65
2021/01/06 01:28:48;;;;;;;10.83;5.80;;;;;;;;;;5063164;28;20334;-65
2021/01/06 01:31:13;;;;;;;9.50;5.17;;;;;;;;;;5072177;28;20028;-65
2021/01/06 01:33:41;;;;;;;9.87;4.83;;;;;;;;;;5085759;28;20016;-65
2021/01/06 01:36:06;;;;;;;10.73;5.73;;;;;;;;;;5072426;28;20104;-65
2021/01/06 01:38:32;;;;;;;9.23;5.13;;;;;;;;;;5072489;28;20101;-65
2021/01/06 01:40:57;;;;;;;8.57;4.70;;;;;;;;;;5073194;28;20111;-65
2021/01/06 01:43:22;;;;;;;11.93;6.10;;;;;;;;;;5068186;28;20033;-65
2021/01/06 01:45:50;;;;;;;9.70;5.37;;;;;;;;;;5055689;28;20021;-65
2021/01/06 01:48:31;;;;;;;11.27;5.93;;;;;;;;;;5060713;28;20021;-65
2021/01/06 01:50:57;;;;;;;7.40;4.43;;;;;;;;;;5082286;28;20029;-65
2021/01/06 01:53:29;;;;;;;8.40;4.47;;;;;;;;;;5074718;28;20016;-65
2021/01/06 01:55:55;;;;;;;9.67;5.10;;;;;;;;;;5073157;28;20111;-65
2021/01/06 01:58:22;;;;;;;10.00;5.13;;;;;;;;;;5071347;28;20519;-65
2021/01/06 02:00:47;;;;;;;9.30;4.93;;;;;;;;;;5072604;28;20487;-65
2021/01/06 02:03:28;;;;;;;7.60;4.17;;;;;;;;;;5054918;28;20044;-65
2021/01/06 02:06:01;;;;;;;7.33;4.73;;;;;;;;;;5072204;28;20364;-65
2021/01/06 02:08:33;;;;;;;7.30;4.20;;;;;;;;;;5053312;28;20098;-65
2021/01/06 02:11:07;;;;;;;7.60;4.17;;;;;;;;;;5053690;28;20112;-65
2021/01/06 02:13:39;;;;;;;8.33;4.57;;;;;;;;;;5054868;28;20045;-65
2021/01/06 02:16:14;;;;;;;5.93;3.77;;;;;;;;;;5062278;28;20102;-65
2021/01/06 02:18:39;;;;;;;8.55;4.45;;;;;;;;;;5066616;28;20032;-65
2021/01/06 02:21:04;;;;;;;10.67;4.93;;;;;;;;;;5063737;28;20544;-65
2021/01/06 02:23:30;;;;;;;5.07;3.80;;;;;;;;;;5059286;28;20519;-65
2021/01/06 02:25:55;;;;;;;8.37;3.80;;;;;;;;;;5074735;28;20025;-65
2021/01/06 02:28:20;;;;;;;8.27;4.67;;;;;;;;;;5065389;28;20488;-63
2021/01/06 02:30:46;;;;;;;8.53;4.00;;;;;;;;;;5057360;28;20048;-65
2021/01/06 02:33:11;;;;;;;8.47;4.10;;;;;;;;;;5062339;28;20013;-65
2021/01/06 02:35:36;;;;;;;9.70;5.17;;;;;;;;;;5057968;28;20021;-65
2021/01/06 02:38:02;;;;;;;10.17;5.10;;;;;;;;;;5053444;28;20017;-65
2021/01/06 02:40:27;;;;;;;9.30;4.63;;;;;;;;;;5055740;28;20048;-65
2021/01/06 02:42:52;;;;;;;7.93;4.80;;;;;;;;;;5069104;28;20035;-65
2021/01/06 02:45:18;;;;;;;14.47;5.97;;;;;;;;;;5068105;28;20013;-65
2021/01/06 02:47:47;;;;;;;9.20;5.47;;;;;;;;;;5057513;28;20029;-65
2021/01/06 02:50:13;;;;;;;11.33;5.43;;;;;;;;;;5069714;28;20065;-65
2021/01/06 02:52:41;;;;;;;12.27;5.73;;;;;;;;;;5078672;28;20029;-65
2021/01/06 02:55:08;;;;;;;8.17;4.83;;;;;;;;;;5069144;28;20452;-65
2021/01/06 02:57:35;;;;;;;9.13;5.20;;;;;;;;;;5073671;28;20050;-66
2021/01/06 03:00:00;;;;;;;8.47;5.23;;;;;;;;;;5062174;28;20028;-66
2021/01/06 03:02:25;;;;;;;8.30;5.03;;;;;;;;;;5072769;28;20017;-66
2021/01/06 03:04:58;;;;;;;8.50;4.70;;;;;;;;;;5073483;28;20066;-64
2021/01/06 03:07:25;;;;;;;7.80;4.40;;;;;;;;;;5061249;28;20056;-64
2021/01/06 03:09:51;;;;;;;8.13;4.43;;;;;;;;;;5051316;28;20525;-65
2021/01/06 03:12:17;;;;;;;8.87;4.47;;;;;;;;;;5052951;28;20025;-65
2021/01/06 03:14:43;;;;;;;8.03;4.63;;;;;;;;;;5071687;28;20016;-65
2021/01/06 03:17:09;;;;;;;7.83;4.67;;;;;;;;;;5062100;28;20077;-65
2021/01/06 03:19:37;;;;;;;9.57;4.97;;;;;;;;;;5070635;28;20023;-65
2021/01/06 03:22:04;;;;;;;10.03;5.70;;;;;;;;;;5054988;28;20043;-65
2021/01/06 03:24:31;;;;;;;8.07;5.30;;;;;;;;;;5055483;28;20044;-65
2021/01/06 03:26:57;;;;;;;9.50;5.20;;;;;;;;;;5064654;28;20427;-65
2021/01/06 03:29:24;;;;;;;16.77;5.67;;;;;;;;;;5058049;28;20033;-65
2021/01/06 03:31:50;;;;;;;9.50;5.20;;;;;;;;;;5053777;28;20087;-65
2021/01/06 03:34:18;;;;;;;13.10;5.97;;;;;;;;;;5081965;28;20409;-65
2021/01/06 03:36:45;;;;;;;12.13;6.00;;;;;;;;;;5071335;28;20056;-65
2021/01/06 03:39:17;;;;;;;9.33;5.40;;;;;;;;;;5068898;28;20021;-65
2021/01/06 03:41:42;;;;;;;12.70;5.63;;;;;;;;;;5072155;28;20460;-65
2021/01/06 03:44:09;;;;;;;12.53;5.50;;;;;;;;;;5057504;28;20116;-66
2021/01/06 03:46:54;;;;;;;13.40;6.00;;;;;;;;;;5069239;28;20028;-65
2021/01/06 03:49:38;;;;;;;11.30;5.35;;;;;;;;;;5069191;28;20032;-65
2021/01/06 03:52:09;;;;;;;10.00;4.60;;;;;;;;;;5073085;28;20060;-65
2021/01/06 03:54:41;;;;;;;11.87;5.80;;;;;;;;;;5087774;28;20009;-65
2021/01/06 03:57:07;;;;;;;12.97;5.67;;;;;;;;;;5078119;28;20387;-65
2021/01/06 03:59:33;;;;;;;9.70;5.20;;;;;;;;;;5069284;28;20017;-65
2021/01/06 04:02:13;;;;;;;11.67;5.20;;;;;;;;;;5054510;28;20036;-65
2021/01/06 04:04:38;;;;;;;7.93;5.10;;;;;;;;;;5064594;28;20055;-65
2021/01/06 04:07:05;;;;;;;10.00;5.50;;;;;;;;;;5059068;28;20021;-65
2021/01/06 04:09:33;;;;;;;10.30;5.90;;;;;;;;;;5068566;28;20751;-65
2021/01/06 04:12:09;;;;;;;9.37;4.67;;;;;;;;;;5072174;28;20066;-65
2021/01/06 04:14:34;;;;;;;9.33;4.57;;;;;;;;;;5055819;28;20032;-65
2021/01/06 04:17:03;;;;;;;9.13;5.53;;;;;;;;;;5058607;28;20487;-65
2021/01/06 04:19:28;;;;;;;8.67;3.87;;;;;;;;;;5061661;28;20021;-65
2021/01/06 04:21:53;;;;;;;8.70;5.03;;;;;;;;;;5052446;28;20020;-65
2021/01/06 04:24:18;;;;;;;7.47;4.50;;;;;;;;;;5056307;28;20040;-65
2021/01/06 04:26:44;;;;;;;8.73;4.57;;;;;;;;;;5059311;28;20051;-65
2021/01/06 04:29:09;;;;;;;6.80;4.17;;;;;;;;;;5068727;28;20028;-65
2021/01/06 04:31:34;;;;;;;6.40;3.97;;;;;;;;;;5056006;28;20021;-65
2021/01/06 04:33:59;;;;;;;7.10;4.07;;;;;;;;;;5070256;28;20094;-65
2021/01/06 04:36:26;;;;;;;5.90;3.67;;;;;;;;;;5067756;28;20024;-65
2021/01/06 04:38:52;;;;;;;7.80;4.23;;;;;;;;;;5047665;28;20315;-65
2021/01/06 04:41:23;;;;;;;6.90;4.07;;;;;;;;;;5055629;28;20025;-65
2021/01/06 04:43:54;;;;;;;8.87;4.37;;;;;;;;;;5087912;28;20017;-65
2021/01/06 04:46:49;;;;;;;5.93;3.43;;;;;;;;;;5054577;28;20025;-66
2021/01/06 04:49:31;;;;;;;4.33;2.27;;;;;;;;;;5048445;28;20033;-65
2021/01/06 04:52:15;;;;;;;3.83;2.47;;;;;;;;;;5052617;28;20024;-65
2021/01/06 04:54:40;;;;;;;6.43;2.87;;;;;;;;;;5060503;28;20033;-65
2021/01/06 04:57:28;;;;;;;4.77;2.83;;;;;;;;;;5071116;28;20069;-65
2021/01/06 04:59:56;;;;;;;7.53;3.10;;;;;;;;;;5062668;28;20025;-65
2021/01/06 05:02:34;;;;;;;5.97;3.40;;;;;;;;;;5074272;28;20016;-65
2021/01/06 05:05:18;;;;;;;5.37;2.87;;;;;;;;;;5069457;28;20029;-65
2021/01/06 05:07:52;;;;;;;6.27;2.80;;;;;;;;;;5076039;28;20023;-64
2021/01/06 05:10:21;;;;;;;6.73;3.10;;;;;;;;;;5071688;28;20078;-65
2021/01/06 05:12:48;;;;;;;4.93;2.57;;;;;;;;;;5059286;28;20104;-65
2021/01/06 05:15:13;;;;;;;7.47;3.77;;;;;;;;;;5066316;28;20020;-65
2021/01/06 05:17:39;;;;;;;7.93;3.27;;;;;;;;;;5070708;28;20027;-65
2021/01/06 05:20:05;;;;;;;8.73;3.30;;;;;;;;;;5057877;28;20048;-65
2021/01/06 05:22:31;;;;;;;9.57;3.60;;;;;;;;;;5072297;28;20059;-65
2021/01/06 05:24:56;;;;;;;9.83;3.50;;;;;;;;;;5073928;28;20084;-65
2021/01/06 05:27:26;;;;;;;12.23;3.33;;;;;;;;;;5074474;28;20131;-65
2021/01/06 05:29:58;;;;;;;12.17;4.33;;;;;;;;;;5071169;28;20024;-65
2021/01/06 05:32:38;;;;;;;8.57;3.87;;;;;;;;;;5062203;28;20016;-65
2021/01/06 05:35:09;;;;;;;10.93;3.93;;;;;;;;;;5061000;28;20048;-65
2021/01/06 05:37:34;;;;;;;8.93;4.80;;;;;;;;;;5057106;28;20024;-65
2021/01/06 05:40:10;;;;;;;6.67;3.50;;;;;;;;;;5052522;28;20410;-65
2021/01/06 05:42:41;;;;;;;7.83;3.40;;;;;;;;;;5062758;28;20332;-65
2021/01/06 05:45:07;;;;;;;10.83;3.93;;;;;;;;;;5059219;28;20021;-65
2021/01/06 05:47:41;;;;;;;10.57;4.27;;;;;;;;;;5060952;28;20020;-65
2021/01/06 05:50:10;;;;;;;9.27;4.30;;;;;;;;;;5072659;28;20020;-65
2021/01/06 05:52:35;;;;;;;9.53;4.30;;;;;;;;;;5068955;28;20454;-65
2021/01/06 05:55:03;;;;;;;9.40;4.30;;;;;;;;;;5075257;28;20039;-65
2021/01/06 05:57:28;;;;;;;9.57;4.50;;;;;;;;;;5068066;28;20423;-65
2021/01/06 06:00:12;;;;;;;11.20;4.80;;;;;;;;;;5051013;28;20021;-65
2021/01/06 06:02:41;;;;;;;7.77;4.37;;;;;;;;;;5077613;28;20073;-65
2021/01/06 06:05:20;;;;;;;9.40;4.20;;;;;;;;;;5075156;28;20116;-64
2021/01/06 06:08:04;;;;;;;9.73;4.50;;;;;;;;;;5073596;28;20017;-64
2021/01/06 06:10:47;;;;;;;9.47;4.90;;;;;;;;;;5070249;28;20021;-65
2021/01/06 06:13:31;;;;;;;19.27;4.77;;;;;;;;;;5062081;28;20032;-64
2021/01/06 06:16:11;;;;;;;10.87;4.43;;;;;;;;;;5074301;28;20058;-64
2021/01/06 06:18:48;;;;;;;11.80;5.10;;;;;;;;;;5070383;28;20083;-64
2021/01/06 06:21:27;;;;;;;12.23;5.63;;;;;;;;;;5071521;28;20052;-64
2021/01/06 06:24:15;;;;;;;17.43;5.67;;;;;;;;;;5063185;28;20052;-64
2021/01/06 06:26:49;;;;;;;16.00;5.20;;;;;;;;;;5061876;28;20558;-64
2021/01/06 06:29:26;;;;;;;15.23;5.70;;;;;;;;;;5062573;28;20475;-64
2021/01/06 06:31:52;;;;;;;32.93;5.90;;;;;;;;;;5059732;28;20029;-64
2021/01/06 06:34:23;;;;;;;23.17;6.23;;;;;;;;;;5069419;28;20029;-65
2021/01/06 06:36:49;;;;;;;23.83;6.40;;;;;;;;;;5064706;28;20108;-64
2021/01/06 06:39:14;;;;;;;23.10;6.30;;;;;;;;;;5061188;28;20107;-64
2021/01/06 06:41:40;;;;;;;26.37;6.83;;;;;;;;;;5065883;28;20024;-64
2021/01/06 06:44:25;;;;;;;25.10;7.07;;;;;;;;;;5068409;28;20644;-65
2021/01/06 06:46:54;;;;;;;44.63;8.15;;;;;;;;;;5065995;28;20052;-64
2021/01/06 06:49:42;;;;;;;36.43;7.93;;;;;;;;;;5063323;28;20052;-64
2021/01/06 06:52:15;;;;;;;50.93;8.23;;;;;;;;;;5012671;28;20119;-64
2021/01/06 06:54:46;;;;;;;37.07;7.60;;;;;;;;;;4998045;28;20400;-65
2021/01/06 06:57:32;;;;;;;41.53;7.97;;;;;;;;;;5009918;28;20109;-65
2021/01/06 07:00:06;;;;;;;29.95;7.05;;;;;;;;;;5000023;28;20030;-65
2021/01/06 07:02:31;;;;;;;41.17;8.10;;;;;;;;;;4996013;28;20111;-65
2021/01/06 07:05:00;;;;;;;38.97;7.07;;;;;;;;;;4991921;28;20030;-65
2021/01/06 07:07:43;;;;;;;66.67;8.30;;;;;;;;;;4989498;28;20477;-65
2021/01/06 07:10:17;;;;;;;78.27;9.17;;;;;;;;;;5005056;28;20073;-65
2021/01/06 07:12:42;;;;;;;44.30;7.63;;;;;;;;;;4995242;28;20041;-65
2021/01/06 07:15:19;;;;;;;125.87;10.27;;;;;;;;;;5008191;28;20026;-65
2021/01/06 07:17:44;;;;;;;92.83;11.33;;;;;;;;;;5001866;28;20413;-65
2021/01/06 07:20:12;;;;;;;83.37;9.63;;;;;;;;;;5002894;28;20022;-65
2021/01/06 07:22:39;;;;;;;83.17;10.30;;;;;;;;;;5009408;28;20037;-65
2021/01/06 07:25:10;;;;;;;64.07;10.60;;;;;;;;;;5005497;28;20506;-65
2021/01/06 07:27:36;;;;;;;109.80;11.40;;;;;;;;;;5008788;28;20144;-65
2021/01/06 07:30:01;;;;;;;131.77;13.27;;;;;;;;;;5052559;28;20123;-65
2021/01/06 07:32:39;;;;;;;101.30;12.97;;;;;;;;;;5071280;28;20455;-66
2021/01/06 07:35:10;;;;;;;124.53;12.73;;;;;;;;;;5082055;28;20161;-64
2021/01/06 07:37:38;;;;;;;105.87;11.10;;;;;;;;;;5066341;28;20387;-65
2021/01/06 07:40:03;;;;;;;103.97;9.70;;;;;;;;;;5068708;28;20021;-64
2021/01/06 07:42:37;;;;;;;118.97;12.83;;;;;;;;;;5068838;28;20099;-64
2021/01/06 07:45:20;;;;;;;168.77;12.60;;;;;;;;;;5071806;28;20020;-64
2021/01/06 07:48:04;;;;;;;91.60;10.13;;;;;;;;;;5058629;28;20025;-64
2021/01/06 07:50:31;;;;;;;118.33;11.67;;;;;;;;;;5062892;28;20031;-64
2021/01/06 07:53:09;;;;;;;156.90;13.17;;;;;;;;;;5058178;28;20122;-64
2021/01/06 07:55:40;;;;;;;211.07;15.33;;;;;;;;;;5067486;28;20019;-65
2021/01/06 07:58:11;;;;;;;90.70;11.60;;;;;;;;;;5070329;28;20021;-65
2021/01/06 08:00:52;;;;;;;108.77;11.80;;;;;;;;;;5050993;28;20028;-65
2021/01/06 08:03:22;;;;;;;161.70;14.13;;;;;;;;;;5056483;28;20100;-65
2021/01/06 08:05:54;;;;;;;224.90;17.80;;;;;;;;;;5056106;28;20038;-65
2021/01/06 08:08:20;;;;;;;106.00;12.50;;;;;;;;;;5058695;28;20024;-65
2021/01/06 08:10:47;;;;;;;110.20;13.53;;;;;;;;;;5052677;28;20017;-65
2021/01/06 08:13:15;;;;;;;154.53;14.80;;;;;;;;;;5073537;28;20100;-65
2021/01/06 08:15:41;;;;;;;163.63;14.43;;;;;;;;;;5061546;28;20385;-65
2021/01/06 08:18:10;;;;;;;117.67;13.67;;;;;;;;;;5062141;28;20016;-65
2021/01/06 08:20:51;;;;;;;182.43;15.07;;;;;;;;;;5053223;28;20046;-65
2021/01/06 08:23:26;;;;;;;110.80;13.03;;;;;;;;;;5060809;28;20036;-66
2021/01/06 08:25:57;;;;;;;196.85;17.15;;;;;;;;;;5063615;28;20069;-65
2021/01/06 08:28:26;;;;;;;116.93;11.87;;;;;;;;;;5052769;28;20086;-65
2021/01/06 08:30:51;;;;;;;79.07;11.20;;;;;;;;;;5065881;28;20016;-66
2021/01/06 08:33:17;;;;;;;104.37;11.13;;;;;;;;;;5052731;28;20020;-65
2021/01/06 08:35:44;;;;;;;174.03;15.80;;;;;;;;;;5060937;28;20453;-66
2021/01/06 08:38:26;;;;;;;182.63;13.00;;;;;;;;;;5051579;28;20020;-65
2021/01/06 08:40:51;;;;;;;130.10;13.53;;;;;;;;;;5055033;28;20074;-66
2021/01/06 08:43:16;;;;;;;82.57;12.13;;;;;;;;;;5052231;28;20100;-66
2021/01/06 08:46:02;;;;;;;88.47;12.43;;;;;;;;;;5063895;28;20379;-66
2021/01/06 08:48:30;;;;;;;111.70;12.50;;;;;;;;;;5047946;28;20395;-66
2021/01/06 08:51:16;;;;;;;111.47;12.27;;;;;;;;;;5071621;28;20108;-65
2021/01/06 08:53:42;;;;;;;91.97;9.40;;;;;;;;;;5066676;28;20501;-66
2021/01/06 08:56:09;;;;;;;60.40;9.97;;;;;;;;;;5062623;28;20034;-66
2021/01/06 08:58:39;;;;;;;141.77;12.93;;;;;;;;;;5068646;28;20529;-66
2021/01/06 09:01:13;;;;;;;49.93;8.73;;;;;;;;;;5057261;28;20559;-65
2021/01/06 09:03:54;;;;;;;65.00;10.17;;;;;;;;;;5052262;28;20100;-66
2021/01/06 09:06:21;;;;;;;75.83;10.57;;;;;;;;;;5051774;28;20028;-66
2021/01/06 09:08:52;;;;;;;51.33;10.13;;;;;;;;;;5047161;28;20029;-65
2021/01/06 09:11:24;;;;;;;38.40;11.57;;;;;;;;;;5072975;28;20395;-65
2021/01/06 09:13:49;;;;;;;26.63;10.77;;;;;;;;;;5059761;28;20415;-65
2021/01/06 09:16:17;;;;;;;44.43;11.63;;;;;;;;;;5051925;28;20021;-65
2021/01/06 09:18:45;;;;;;;28.80;10.90;;;;;;;;;;5066422;28;20274;-65
2021/01/06 09:21:13;;;;;;;23.50;11.37;;;;;;;;;;5070865;28;20036;-66
2021/01/06 09:23:39;;;;;;;28.43;12.33;;;;;;;;;;5070047;28;20076;-66
2021/01/06 09:26:05;;;;;;;19.73;9.43;;;;;;;;;;5057392;28;20075;-66
2021/01/06 09:28:31;;;;;;;16.20;8.77;;;;;;;;;;5049112;28;20020;-66
2021/01/06 09:30:57;;;;;;;13.80;7.87;;;;;;;;;;5069263;28;20029;-66
2021/01/06 09:33:25;;;;;;;11.73;6.53;;;;;;;;;;5061760;28;20128;-66
2021/01/06 09:35:50;;;;;;;13.20;7.43;;;;;;;;;;5065539;28;20107;-66
2021/01/06 09:38:28;;;;;;;22.37;7.87;;;;;;;;;;5051211;28;20100;-66
2021/01/06 09:40:56;;;;;;;21.37;8.07;;;;;;;;;;5057188;28;20023;-66
2021/01/06 09:43:34;;;;;;;21.10;8.93;;;;;;;;;;5069473;28;20471;-66
2021/01/06 09:45:59;;;;;;;18.43;8.47;;;;;;;;;;5071328;28;20064;-65
2021/01/06 09:48:24;;;;;;;23.40;9.30;;;;;;;;;;5068314;28;20024;-66
2021/01/06 09:50:51;;;;;;;20.30;8.50;;;;;;;;;;5071596;28;20017;-66
2021/01/06 09:53:18;;;;;;;21.50;8.23;;;;;;;;;;5077620;28;20024;-66
2021/01/06 09:55:46;;;;;;;29.13;7.97;;;;;;;;;;5055064;28;20017;-66
2021/01/06 09:58:30;;;;;;;14.70;8.33;;;;;;;;;;5055323;28;20060;-66
2021/01/06 10:01:06;;;;;;;50.17;8.33;;;;;;;;;;5070014;28;20050;-66
2021/01/06 10:03:33;;;;;;;23.57;7.93;;;;;;;;;;5057630;28;20459;-66
2021/01/06 10:06:19;;;;;;;17.30;7.83;;;;;;;;;;5070604;28;20025;-66
2021/01/06 10:08:46;;;;;;;18.75;7.65;;;;;;;;;;5030804;28;20052;-65
2021/01/06 10:11:27;;;;;;;14.33;7.00;;;;;;;;;;5059323;28;20029;-66
2021/01/06 10:14:11;;;;;;;11.87;6.90;;;;;;;;;;5066540;28;20032;-65
2021/01/06 10:16:43;;;;;;;10.40;6.27;;;;;;;;;;5064682;28;20467;-66
2021/01/06 10:19:37;;;;;;;11.03;6.87;;;;;;;;;;5060195;28;20016;-65
2021/01/06 10:22:21;;;;;;;9.10;6.40;;;;;;;;;;5060507;28;20487;-65
2021/01/06 10:24:49;;;;;;;7.77;5.73;;;;;;;;;;5074502;28;20128;-65
2021/01/06 10:27:21;;;;;;;5.00;3.37;;;;;;;;;;5058456;28;20025;-65
2021/01/06 10:29:47;;;;;;;4.30;3.47;;;;;;;;;;5066748;28;20273;-66
2021/01/06 10:32:13;;;;;;;5.57;3.57;;;;;;;;;;5074051;28;20048;-65
2021/01/06 10:34:42;;;;;;;3.77;2.67;;;;;;;;;;5067211;28;20438;-65
2021/01/06 10:37:16;;;;;;;5.67;4.23;;;;;;;;;;5059949;28;20020;-65
2021/01/06 10:39:43;;;;;;;4.30;3.30;;;;;;;;;;5069539;28;20028;-66
2021/01/06 10:42:21;;;;;;;5.83;3.60;;;;;;;;;;5087268;28;20032;-66
2021/01/06 10:44:56;;;;;;;5.00;3.27;;;;;;;;;;5071604;28;20028;-66
2021/01/06 10:47:31;;;;;;;6.70;3.83;;;;;;;;;;5067269;28;20092;-66
2021/01/06 10:49:59;;;;;;;5.45;3.53;;;;;;;;;;5059231;28;20082;-66
2021/01/06 10:52:34;;;;;;;6.90;4.03;;;;;;;;;;5072484;28;20055;-66
2021/01/06 10:55:08;;;;;;;5.25;3.78;;;;;;;;;;5073035;28;20013;-66
2021/01/06 10:57:48;;;;;;;2.83;2.20;;;;;;;;;;5069493;28;20066;-66
2021/01/06 11:00:18;;;;;;;3.00;1.90;;;;;;;;;;5061618;28;20280;-66
2021/01/06 11:03:02;;;;;;;3.33;1.87;;;;;;;;;;5053925;28;20028;-66
2021/01/06 11:05:31;;;;;;;2.57;1.73;;;;;;;;;;5054097;28;20059;-65
2021/01/06 11:07:56;;;;;;;3.43;1.57;;;;;;;;;;5051653;28;20467;-65
2021/01/06 11:10:40;;;;;;;3.27;1.80;;;;;;;;;;5058335;28;20016;-65
2021/01/06 11:13:24;;;;;;;3.07;1.80;;;;;;;;;;5068220;28;20033;-65
2021/01/06 11:15:53;;;;;;;11.97;2.60;;;;;;;;;;5053665;28;20023;-65
2021/01/06 11:18:21;;;;;;;5.63;2.30;;;;;;;;;;5067268;28;20101;-65
2021/01/06 11:20:49;;;;;;;7.37;2.80;;;;;;;;;;5069856;28;20115;-65
2021/01/06 11:23:28;;;;;;;3.40;2.43;;;;;;;;;;5071527;28;20484;-65
2021/01/06 11:26:00;;;;;;;3.90;2.50;;;;;;;;;;5060098;28;20032;-65
2021/01/06 11:28:35;;;;;;;7.73;1.33;;;;;;;;;;5050907;28;20382;-65
2021/01/06 11:31:21;;;;;;;10.50;2.15;;;;;;;;;;5087390;28;20020;-65
2021/01/06 11:34:16;;;;;;;9.93;2.23;;;;;;;;;;5070718;28;20021;-65
2021/01/06 11:36:41;;;;;;;4.67;2.27;;;;;;;;;;5058179;28;20032;-64
2021/01/06 11:39:08;;;;;;;16.77;3.53;;;;;;;;;;5067863;28;20024;-65
2021/01/06 11:41:33;;;;;;;18.17;2.60;;;;;;;;;;5073225;28;20384;-66
2021/01/06 11:44:21;;;;;;;4.97;2.43;;;;;;;;;;5063152;28;20028;-65
2021/01/06 11:46:58;;;;;;;3.10;2.13;;;;;;;;;;5079999;28;20036;-65
2021/01/06 11:49:25;;;;;;;6.07;2.67;;;;;;;;;;5056441;28;20020;-65
2021/01/06 11:52:08;;;;;;;7.13;2.17;;;;;;;;;;5067049;28;20020;-65
2021/01/06 11:54:36;;;;;;;7.57;2.13;;;;;;;;;;5065907;28;20047;-65
2021/01/06 11:57:04;;;;;;;13.73;3.00;;;;;;;;;;5065747;28;20247;-65
2021/01/06 11:59:32;;;;;;;15.80;3.83;;;;;;;;;;5068111;28;20023;-65
2021/01/06 12:02:10;;;;;;;53.07;4.67;;;;;;;;;;5070249;28;20050;-65
2021/01/06 12:04:35;;;;;;;38.20;3.80;;;;;;;;;;5052845;28;20071;-65
2021/01/06 12:07:19;;;;;;;15.20;5.70;;;;;;;;;;5061939;28;20089;-65
2021/01/06 12:09:52;;;;;;;8.53;5.13;;;;;;;;;;5048314;28;20483;-65
2021/01/06 12:12:47;;;;;;;10.43;6.23;;;;;;;;;;5061188;28;20116;-65
2021/01/06 12:15:30;;;;;;;9.30;5.63;;;;;;;;;;5058309;28;20093;-65
2021/01/06 12:17:57;;;;;;;13.10;8.10;;;;;;;;;;5051471;28;20024;-65
2021/01/06 12:20:27;;;;;;;11.63;7.53;;;;;;;;;;5050127;28;20111;-65
2021/01/06 12:23:11;;;;;;;9.90;6.53;;;;;;;;;;5052376;28;20036;-65
2021/01/06 12:25:56;;;;;;;10.87;7.43;;;;;;;;;;5052448;28;20435;-65
2021/01/06 12:28:25;;;;;;;11.35;7.32;;;;;;;;;;5060514;28;20040;-64
2021/01/06 12:31:03;;;;;;;10.33;7.10;;;;;;;;;;5054601;28;20024;-66
2021/01/06 12:33:37;;;;;;;11.30;7.30;;;;;;;;;;5059120;28;20436;-66
2021/01/06 12:36:07;;;;;;;12.57;7.43;;;;;;;;;;5063360;28;20033;-66
2021/01/06 12:38:33;;;;;;;10.63;6.20;;;;;;;;;;5052025;28;20024;-65
2021/01/06 12:41:03;;;;;;;9.00;6.50;;;;;;;;;;5070502;28;20110;-66
2021/01/06 12:43:31;;;;;;;9.77;6.83;;;;;;;;;;5055018;28;20017;-66
2021/01/06 12:46:03;;;;;;;9.17;6.70;;;;;;;;;;5058806;28;20013;-65
2021/01/06 12:48:31;;;;;;;10.10;7.47;;;;;;;;;;5057553;28;20021;-65
2021/01/06 12:51:00;;;;;;;8.83;6.17;;;;;;;;;;5067636;28;20477;-65
2021/01/06 12:53:33;;;;;;;9.73;6.63;;;;;;;;;;5071780;28;20568;-65
2021/01/06 12:55:58;;;;;;;10.43;6.87;;;;;;;;;;5070636;28;20025;-65
2021/01/06 12:58:26;;;;;;;7.87;5.20;;;;;;;;;;5057287;28;20432;-65
2021/01/06 13:01:01;;;;;;;9.13;6.53;;;;;;;;;;5067465;28;20009;-65
2021/01/06 13:03:28;;;;;;;13.32;9.60;;;;;;;;;;5051911;28;20143;-65
2021/01/06 13:05:59;;;;;;;11.27;7.80;;;;;;;;;;5062791;28;20376;-65
2021/01/06 13:08:28;;;;;;;11.03;7.57;;;;;;;;;;5065125;28;20051;-64
2021/01/06 13:10:54;;;;;;;12.73;8.97;;;;;;;;;;5069441;28;20018;-65
2021/01/06 13:13:32;;;;;;;11.77;8.40;;;;;;;;;;5068913;28;20024;-65
2021/01/06 13:16:00;;;;;;;11.60;8.37;;;;;;;;;;5052976;28;20108;-65
2021/01/06 13:18:47;;;;;;;9.93;6.23;;;;;;;;;;5051915;28;20017;-65
2021/01/06 13:21:24;;;;;;;12.13;8.00;;;;;;;;;;5080056;28;20032;-65
2021/01/06 13:23:52;;;;;;;9.27;5.67;;;;;;;;;;5087557;28;20056;-66
2021/01/06 13:26:17;;;;;;;13.87;9.07;;;;;;;;;;5057415;28;20061;-65
2021/01/06 13:28:52;;;;;;;12.97;8.40;;;;;;;;;;5064668;28;20024;-65
2021/01/06 13:31:21;;;;;;;4.50;2.60;;;;;;;;;;5075679;28;20020;-65
2021/01/06 13:34:09;;;;;;;11.30;6.87;;;;;;;;;;5074022;28;20614;-65
2021/01/06 13:36:52;;;;;;;9.40;4.63;;;;;;;;;;5058678;28;20016;-66
2021/01/06 13:39:22;;;;;;;10.20;6.60;;;;;;;;;;5070699;28;20433;-66
2021/01/06 13:41:47;;;;;;;7.50;5.00;;;;;;;;;;5073625;28;20048;-65
2021/01/06 13:44:16;;;;;;;7.43;4.67;;;;;;;;;;5063731;28;20056;-65
2021/01/06 13:46:49;;;;;;;6.03;4.10;;;;;;;;;;5056795;28;20422;-65
2021/01/06 13:49:27;;;;;;;9.17;5.30;;;;;;;;;;5063533;28;20099;-65
2021/01/06 13:52:04;;;;;;;9.37;4.33;;;;;;;;;;5055190;28;20052;-65
2021/01/06 13:54:38;;;;;;;4.97;2.80;;;;;;;;;;5054819;28;20096;-65
2021/01/06 13:57:05;;;;;;;5.93;4.07;;;;;;;;;;5061865;28;20025;-65
2021/01/06 13:59:37;;;;;;;6.77;4.70;;;;;;;;;;5071816;28;20745;-65
2021/01/06 14:02:22;;;;;;;7.80;4.93;;;;;;;;;;5058064;28;20024;-66
2021/01/06 14:04:50;;;;;;;6.60;4.43;;;;;;;;;;5041693;28;20644;-64
2021/01/06 14:07:26;;;;;;;6.13;4.73;;;;;;;;;;5068408;28;20507;-65
2021/01/06 14:09:54;;;;;;;7.50;4.30;;;;;;;;;;5052753;28;20474;-65
2021/01/06 14:12:31;;;;;;;6.80;4.63;;;;;;;;;;5056080;28;20036;-64
2021/01/06 14:14:56;;;;;;;8.00;5.07;;;;;;;;;;5057759;28;20096;-65
2021/01/06 14:17:43;;;;;;;6.37;3.40;;;;;;;;;;5062906;28;20134;-65
2021/01/06 14:20:28;;;;;;;7.23;4.60;;;;;;;;;;5070625;28;20031;-65
2021/01/06 14:23:11;;;;;;;10.27;5.50;;;;;;;;;;5068379;28;20052;-65
2021/01/06 14:25:59;;;;;;;10.77;6.87;;;;;;;;;;5054016;28;20407;-65
2021/01/06 14:28:33;;;;;;;9.20;6.53;;;;;;;;;;5011144;28;20030;-65
2021/01/06 14:30:59;;;;;;;8.73;5.23;;;;;;;;;;5031384;28;20147;-65
2021/01/06 14:33:29;;;;;;;11.17;6.47;;;;;;;;;;5031058;28;20441;-65
2021/01/06 14:36:06;;;;;;;10.77;6.43;;;;;;;;;;5032224;28;20032;-65
2021/01/06 14:38:33;;;;;;;11.30;7.60;;;;;;;;;;5028794;28;20495;-65
2021/01/06 14:41:01;;;;;;;12.37;7.93;;;;;;;;;;5025864;28;20014;-65
2021/01/06 14:43:26;;;;;;;13.13;7.60;;;;;;;;;;5025059;28;20033;-65
2021/01/06 14:46:00;;;;;;;13.00;8.43;;;;;;;;;;5012641;28;20048;-65
2021/01/06 14:48:30;;;;;;;21.53;13.17;;;;;;;;;;5029426;28;20036;-65
2021/01/06 14:50:55;;;;;;;18.23;12.07;;;;;;;;;;5030817;28;20084;-65
2021/01/06 14:53:24;;;;;;;16.53;9.47;;;;;;;;;;5031709;28;20072;-65
2021/01/06 14:56:08;;;;;;;12.77;8.27;;;;;;;;;;5032095;28;20037;-65